createdAt,value
2023-05-06T00:00:41.266Z,9.26
2023-05-06T00:03:15.082Z,9.24
2023-05-06T00:05:43.585Z,9.23
2023-05-06T00:08:12.356Z,9.24
2023-05-06T00:10:40.553Z,9.21
2023-05-06T00:13:09.700Z,9.18
2023-05-06T00:15:38.167Z,9.14
2023-05-06T00:18:09.229Z,9.14
2023-05-06T00:20:37.539Z,9.15
2023-05-06T00:23:05.969Z,9.13
2023-05-06T00:25:35.527Z,9.14
2023-05-06T00:28:04.276Z,9.12
2023-05-06T00:30:33.956Z,9.07
2023-05-06T00:33:02.453Z,9.07
2023-05-06T00:35:31.386Z,9.06
2023-05-06T00:38:13.788Z,9.04
2023-05-06T00:40:42.039Z,9.04
2023-05-06T00:43:10.431Z,9.03
2023-05-06T00:45:41.066Z,9.03
2023-05-06T00:48:09.959Z,9.01
2023-05-06T00:50:40.862Z,8.99
2023-05-06T00:53:13.776Z,8.95
2023-05-06T00:55:42.302Z,8.96
2023-05-06T00:58:10.904Z,8.98
2023-05-06T01:00:39.275Z,8.96
2023-05-06T01:03:07.770Z,8.95
2023-05-06T01:05:58.255Z,8.97
2023-05-06T01:08:42.395Z,8.93
2023-05-06T01:11:21.793Z,8.91
2023-05-06T01:14:06.522Z,8.93
2023-05-06T01:16:40.022Z,8.94
2023-05-06T01:19:14.866Z,8.89
2023-05-06T01:21:46.519Z,8.88
2023-05-06T01:24:14.918Z,8.91
2023-05-06T01:26:44.248Z,8.93
2023-05-06T01:29:12.688Z,8.92
2023-05-06T01:31:48.577Z,8.88
2023-05-06T01:34:28.591Z,8.89
2023-05-06T01:37:23.587Z,8.90
2023-05-06T01:39:56.406Z,8.89
2023-05-06T01:42:27.356Z,8.89
2023-05-06T01:44:57.499Z,8.90
2023-05-06T01:47:26.240Z,8.88
2023-05-06T01:49:54.746Z,8.86
2023-05-06T01:52:23.070Z,8.85
2023-05-06T01:54:51.982Z,8.81
2023-05-06T01:57:20.471Z,8.80
2023-05-06T01:59:51.012Z,8.80
2023-05-06T02:02:19.313Z,8.81
2023-05-06T02:04:47.782Z,8.84
2023-05-06T02:07:16.276Z,8.85
2023-05-06T02:09:44.880Z,8.86
2023-05-06T02:12:13.234Z,8.85
2023-05-06T02:14:41.580Z,8.81
2023-05-06T02:17:09.819Z,8.78
2023-05-06T02:19:38.022Z,8.77
2023-05-06T02:22:06.328Z,8.77
2023-05-06T02:24:34.537Z,8.79
2023-05-06T02:27:04.593Z,8.75
2023-05-06T02:29:35.273Z,8.71
2023-05-06T02:32:04.129Z,8.69
2023-05-06T02:34:32.693Z,8.70
2023-05-06T02:37:01.216Z,8.72
2023-05-06T02:39:30.206Z,8.72
2023-05-06T02:41:58.762Z,8.71
2023-05-06T02:44:36.256Z,8.71
2023-05-06T02:47:04.772Z,8.69
2023-05-06T02:49:35.951Z,8.67
2023-05-06T02:52:13.463Z,8.64
2023-05-06T02:54:41.790Z,8.65
2023-05-06T02:57:11.638Z,8.62
2023-05-06T02:59:40.188Z,8.60
2023-05-06T03:02:08.786Z,8.61
2023-05-06T03:04:37.499Z,8.58
2023-05-06T03:07:06.549Z,8.53
2023-05-06T03:09:37.498Z,8.48
2023-05-06T03:12:29.732Z,8.43
2023-05-06T03:15:41.402Z,8.32
2023-05-06T03:18:09.968Z,8.22
2023-05-06T03:20:38.746Z,8.16
2023-05-06T03:23:29.538Z,8.08
2023-05-06T03:25:59.425Z,7.95
2023-05-06T03:28:50.914Z,7.84
2023-05-06T03:31:20.936Z,7.78
2023-05-06T03:33:49.521Z,7.71
2023-05-06T03:36:18.277Z,7.65
2023-05-06T03:38:50.279Z,7.57
2023-05-06T03:41:39.102Z,7.50
2023-05-06T03:44:07.419Z,7.46
2023-05-06T03:46:36.246Z,7.41
2023-05-06T03:49:06.154Z,7.35
2023-05-06T03:51:55.182Z,7.28
2023-05-06T03:54:26.310Z,7.24
2023-05-06T03:57:14.976Z,7.23
2023-05-06T03:59:46.484Z,7.22
2023-05-06T04:02:15.202Z,7.17
2023-05-06T04:05:04.971Z,7.14
2023-05-06T04:07:34.051Z,7.09
2023-05-06T04:10:05.369Z,7.10
2023-05-06T04:12:34.513Z,7.10
2023-05-06T04:15:03.011Z,7.08
2023-05-06T04:17:43.546Z,7.07
2023-05-06T04:20:32.436Z,7.05
2023-05-06T04:23:02.007Z,7.02
2023-05-06T04:25:33.803Z,7.00
2023-05-06T04:28:02.702Z,6.95
2023-05-06T04:30:51.875Z,6.91
2023-05-06T04:33:20.351Z,6.89
2023-05-06T04:36:14.909Z,6.86
2023-05-06T04:38:47.349Z,6.84
2023-05-06T04:41:55.644Z,6.82
2023-05-06T04:44:27.303Z,6.81
2023-05-06T04:47:52.906Z,6.79
2023-05-06T04:50:24.697Z,6.77
2023-05-06T04:53:02.430Z,6.74
2023-05-06T04:55:31.096Z,6.73
2023-05-06T04:58:02.427Z,6.75
2023-05-06T05:00:34.625Z,6.76
2023-05-06T05:03:03.236Z,6.77
2023-05-06T05:06:12.510Z,6.74
2023-05-06T05:08:50.526Z,6.72
2023-05-06T05:11:18.943Z,6.73
2023-05-06T05:13:50.057Z,6.72
2023-05-06T05:16:25.889Z,6.69
2023-05-06T05:19:26.411Z,6.70
2023-05-06T05:21:55.115Z,6.70
2023-05-06T05:24:26.655Z,6.69
2023-05-06T05:27:15.321Z,6.70
2023-05-06T05:29:44.037Z,6.70
2023-05-06T05:32:12.538Z,6.69
2023-05-06T05:35:21.368Z,6.71
2023-05-06T05:37:49.999Z,6.76
2023-05-06T05:40:18.378Z,6.78
2023-05-06T05:42:59.877Z,6.80
2023-05-06T05:45:49.301Z,6.80
2023-05-06T05:48:17.936Z,6.80
2023-05-06T05:51:03.599Z,6.81
2023-05-06T05:53:31.890Z,6.83
2023-05-06T05:56:14.914Z,6.86
2023-05-06T05:59:23.928Z,6.88
2023-05-06T06:02:15.524Z,6.86
2023-05-06T06:05:08.060Z,6.90
2023-05-06T06:07:36.750Z,6.93
2023-05-06T06:10:07.335Z,6.91
2023-05-06T06:12:38.470Z,6.92
2023-05-06T06:15:31.227Z,6.88
2023-05-06T06:17:59.634Z,6.85
2023-05-06T06:20:48.267Z,6.86
2023-05-06T06:23:28.156Z,6.83
2023-05-06T06:26:00.130Z,6.83
2023-05-06T06:28:31.724Z,6.81
2023-05-06T06:31:00.137Z,6.82
2023-05-06T06:33:31.151Z,6.80
2023-05-06T06:36:27.683Z,6.79
2023-05-06T06:39:07.122Z,6.80
2023-05-06T06:41:43.615Z,6.84
2023-05-06T06:44:12.732Z,6.85
2023-05-06T06:46:47.270Z,6.77
2023-05-06T06:50:16.795Z,6.77
2023-05-06T06:53:25.744Z,6.80
2023-05-06T06:56:19.091Z,6.79
2023-05-06T06:58:53.027Z,6.77
2023-05-06T07:01:25.663Z,6.76
2023-05-06T07:03:54.185Z,6.77
2023-05-06T07:06:25.832Z,6.78
2023-05-06T07:08:54.249Z,6.80
2023-05-06T07:11:43.104Z,6.84
2023-05-06T07:14:13.007Z,6.85
2023-05-06T07:16:42.886Z,6.89
2023-05-06T07:19:31.628Z,6.86
2023-05-06T07:22:04.108Z,6.84
2023-05-06T07:25:01.920Z,6.89
2023-05-06T07:27:31.019Z,6.88
2023-05-06T07:30:02.623Z,6.88
2023-05-06T07:32:31.019Z,6.87
2023-05-06T07:35:05.879Z,6.87
2023-05-06T07:37:36.857Z,6.88
2023-05-06T07:40:06.611Z,6.88
2023-05-06T07:42:34.923Z,6.82
2023-05-06T07:45:04.501Z,6.80
2023-05-06T07:47:33.745Z,6.82
2023-05-06T07:50:14.670Z,6.83
2023-05-06T07:52:43.177Z,6.84
2023-05-06T07:55:24.019Z,6.84
2023-05-06T07:57:52.549Z,6.83
2023-05-06T08:00:21.152Z,6.84
2023-05-06T08:02:49.537Z,6.84
2023-05-06T08:05:18.347Z,6.86
2023-05-06T08:07:47.261Z,6.89
2023-05-06T08:10:15.410Z,6.87
2023-05-06T08:12:44.210Z,6.87
2023-05-06T08:15:13.003Z,6.89
2023-05-06T08:17:41.589Z,6.87
2023-05-06T08:20:11.145Z,6.85
2023-05-06T08:22:52.311Z,6.89
2023-05-06T08:25:21.488Z,6.92
2023-05-06T08:27:50.012Z,6.94
2023-05-06T08:30:18.354Z,6.93
2023-05-06T08:32:46.959Z,6.91
2023-05-06T08:35:15.302Z,6.89
2023-05-06T08:37:43.964Z,6.89
2023-05-06T08:40:20.658Z,6.92
2023-05-06T08:42:51.024Z,6.96
2023-05-06T08:45:19.996Z,6.95
2023-05-06T08:47:48.790Z,6.89
2023-05-06T08:50:17.490Z,6.89
2023-05-06T08:52:47.948Z,6.92
2023-05-06T08:55:17.998Z,6.90
2023-05-06T08:57:47.592Z,6.85
2023-05-06T09:00:16.086Z,6.86
2023-05-06T09:02:44.517Z,6.89
2023-05-06T09:05:13.156Z,6.86
2023-05-06T09:07:42.044Z,6.85
2023-05-06T09:10:14.903Z,6.86
2023-05-06T09:12:43.327Z,6.84
2023-05-06T09:15:15.793Z,6.83
2023-05-06T09:17:46.404Z,6.83
2023-05-06T09:20:25.559Z,6.85
2023-05-06T09:22:54.083Z,6.90
2023-05-06T09:25:23.033Z,6.88
2023-05-06T09:27:56.186Z,6.88
2023-05-06T09:30:25.968Z,6.87
2023-05-06T09:32:54.925Z,6.89
2023-05-06T09:35:38.243Z,6.90
2023-05-06T09:38:08.044Z,6.93
2023-05-06T09:40:37.388Z,6.94
2023-05-06T09:43:09.045Z,6.94
2023-05-06T09:45:46.652Z,6.90
2023-05-06T09:48:18.048Z,6.88
2023-05-06T09:50:47.592Z,6.90
2023-05-06T09:53:18.160Z,6.86
2023-05-06T09:55:50.993Z,6.85
2023-05-06T09:58:20.540Z,6.86
2023-05-06T10:00:52.190Z,6.83
2023-05-06T10:03:29.989Z,6.86
2023-05-06T10:06:01.025Z,6.86
2023-05-06T10:08:29.637Z,6.83
2023-05-06T10:11:00.813Z,6.84
2023-05-06T10:13:30.420Z,6.81
2023-05-06T10:16:03.078Z,6.83
2023-05-06T10:18:37.597Z,6.83
2023-05-06T10:21:17.407Z,6.81
2023-05-06T10:23:56.735Z,6.85
2023-05-06T10:26:30.120Z,6.89
2023-05-06T10:29:05.377Z,6.85
2023-05-06T10:31:37.599Z,6.85
2023-05-06T10:34:08.948Z,6.90
2023-05-06T10:36:37.725Z,6.87
2023-05-06T10:39:14.469Z,6.82
2023-05-06T10:41:44.245Z,6.85
2023-05-06T10:44:18.404Z,6.89
2023-05-06T10:47:16.567Z,6.87
2023-05-06T10:50:24.151Z,6.88
2023-05-06T10:52:58.248Z,6.84
2023-05-06T10:56:07.278Z,6.80
2023-05-06T10:58:38.836Z,6.84
2023-05-06T11:01:14.526Z,6.87
2023-05-06T11:03:44.359Z,6.86
2023-05-06T11:06:12.734Z,6.82
2023-05-06T11:08:46.429Z,6.77
2023-05-06T11:12:00.495Z,6.74
2023-05-06T11:14:35.596Z,6.68
2023-05-06T11:17:09.137Z,6.70
2023-05-06T11:19:40.513Z,6.72
2023-05-06T11:22:08.873Z,6.73
2023-05-06T11:24:43.728Z,6.70
2023-05-06T11:27:19.673Z,6.63
2023-05-06T11:29:48.040Z,6.60
2023-05-06T11:32:23.298Z,6.62
2023-05-06T11:34:56.155Z,6.68
2023-05-06T11:37:26.768Z,6.69
2023-05-06T11:39:55.454Z,6.64
2023-05-06T11:42:31.321Z,6.63
2023-05-06T11:45:02.308Z,6.64
2023-05-06T11:47:31.165Z,6.62
2023-05-06T11:50:00.199Z,6.63
2023-05-06T11:52:30.822Z,6.64
2023-05-06T11:55:00.161Z,6.67
2023-05-06T11:57:28.785Z,6.70
2023-05-06T11:59:57.408Z,6.65
2023-05-06T12:02:25.901Z,6.66
2023-05-06T12:04:54.835Z,6.68
2023-05-06T12:07:23.494Z,6.71
2023-05-06T12:09:52.031Z,6.72
2023-05-06T12:12:24.132Z,6.73
2023-05-06T12:14:53.656Z,6.72
2023-05-06T12:17:23.545Z,6.69
2023-05-06T12:19:54.821Z,6.70
2023-05-06T12:22:27.419Z,6.71
2023-05-06T12:24:55.910Z,6.68
2023-05-06T12:27:35.365Z,6.66
2023-05-06T12:30:04.905Z,6.64
2023-05-06T12:32:59.785Z,6.61
2023-05-06T12:35:29.975Z,6.61
2023-05-06T12:38:11.971Z,6.61
2023-05-06T12:40:41.870Z,6.63
2023-05-06T12:43:12.303Z,6.69
2023-05-06T12:45:40.865Z,6.72
2023-05-06T12:48:16.398Z,6.70
2023-05-06T12:50:45.557Z,6.64
2023-05-06T12:53:14.138Z,6.66
2023-05-06T12:55:42.722Z,6.65
2023-05-06T12:58:19.485Z,6.61
2023-05-06T13:00:47.830Z,6.58
2023-05-06T13:03:16.187Z,6.58
2023-05-06T13:05:46.779Z,6.60
2023-05-06T13:08:14.898Z,6.65
2023-05-06T13:10:43.146Z,6.69
2023-05-06T13:13:11.697Z,6.69
2023-05-06T13:15:43.199Z,6.70
2023-05-06T13:18:11.780Z,6.74
2023-05-06T13:20:40.933Z,6.77
2023-05-06T13:23:09.715Z,6.77
2023-05-06T13:25:44.914Z,6.75
2023-05-06T13:28:25.516Z,6.71
2023-05-06T13:30:53.990Z,6.72
2023-05-06T13:33:22.963Z,6.79
2023-05-06T13:35:51.777Z,6.84
2023-05-06T13:38:20.713Z,6.80
2023-05-06T13:40:53.314Z,6.73
2023-05-06T13:43:24.919Z,6.68
2023-05-06T13:45:54.025Z,6.70
2023-05-06T13:48:22.277Z,6.69
2023-05-06T13:50:52.879Z,6.68
2023-05-06T13:53:21.719Z,6.67
2023-05-06T13:55:50.138Z,6.65
2023-05-06T13:58:19.062Z,6.66
2023-05-06T14:00:47.512Z,6.67
2023-05-06T14:03:23.539Z,6.69
2023-05-06T14:05:51.894Z,6.71
2023-05-06T14:08:20.236Z,6.73
2023-05-06T14:10:49.051Z,6.74
2023-05-06T14:13:17.760Z,6.74
2023-05-06T14:15:46.602Z,6.73
2023-05-06T14:18:15.205Z,6.68
2023-05-06T14:20:46.004Z,6.67
2023-05-06T14:23:14.997Z,6.69
2023-05-06T14:25:43.327Z,6.73
2023-05-06T14:28:13.387Z,6.68
2023-05-06T14:30:42.824Z,6.67
2023-05-06T14:33:11.724Z,6.69
2023-05-06T14:35:42.420Z,6.71
2023-05-06T14:38:11.230Z,6.71
2023-05-06T14:40:39.458Z,6.70
2023-05-06T14:43:08.176Z,6.70
2023-05-06T14:45:36.659Z,6.68
2023-05-06T14:48:05.698Z,6.63
2023-05-06T14:50:35.143Z,6.60
2023-05-06T14:53:11.304Z,6.59
2023-05-06T14:55:41.428Z,6.59
2023-05-06T14:58:10.290Z,6.60
2023-05-06T15:00:38.427Z,6.62
2023-05-06T15:03:07.269Z,6.61
2023-05-06T15:05:37.425Z,6.60
2023-05-06T15:08:06.481Z,6.58
2023-05-06T15:10:35.256Z,6.60
2023-05-06T15:13:04.129Z,6.61
2023-05-06T15:15:32.712Z,6.59
2023-05-06T15:18:01.501Z,6.55
2023-05-06T15:20:30.086Z,6.54
2023-05-06T15:22:58.506Z,6.55
2023-05-06T15:25:35.097Z,6.56
2023-05-06T15:28:05.803Z,6.56
2023-05-06T15:30:34.053Z,6.52
2023-05-06T15:33:03.140Z,6.48
2023-05-06T15:35:40.432Z,6.48
2023-05-06T15:38:08.826Z,6.52
2023-05-06T15:40:40.423Z,6.54
2023-05-06T15:43:09.084Z,6.53
2023-05-06T15:45:37.833Z,6.52
2023-05-06T15:48:07.251Z,6.54
2023-05-06T15:50:39.243Z,6.51
2023-05-06T15:53:07.866Z,6.48
2023-05-06T15:55:44.482Z,6.48
2023-05-06T15:58:17.689Z,6.48
2023-05-06T16:00:46.198Z,6.46
2023-05-06T16:03:17.251Z,6.48
2023-05-06T16:05:45.727Z,6.51
2023-05-06T16:08:14.342Z,6.51
2023-05-06T16:10:43.066Z,6.50
2023-05-06T16:13:11.454Z,6.46
2023-05-06T16:15:39.913Z,6.46
2023-05-06T16:18:08.552Z,6.45
2023-05-06T16:20:37.096Z,6.47
2023-05-06T16:23:06.454Z,6.48
2023-05-06T16:25:35.391Z,6.51
2023-05-06T16:28:05.518Z,6.49
2023-05-06T16:30:37.219Z,6.50
2023-05-06T16:33:06.459Z,6.45
2023-05-06T16:35:34.870Z,6.45
2023-05-06T16:38:03.360Z,6.44
2023-05-06T16:40:31.947Z,6.45
2023-05-06T16:43:01.442Z,6.49
2023-05-06T16:45:29.957Z,6.53
2023-05-06T16:47:58.686Z,6.53
2023-05-06T16:50:27.834Z,6.53
2023-05-06T16:52:56.406Z,6.52
2023-05-06T16:55:25.249Z,6.51
2023-05-06T16:57:53.693Z,6.52
2023-05-06T17:00:22.539Z,6.51
2023-05-06T17:02:51.666Z,6.50
2023-05-06T17:05:22.052Z,6.48
2023-05-06T17:07:51.096Z,6.48
2023-05-06T17:10:19.736Z,6.47
2023-05-06T17:12:48.313Z,6.46
2023-05-06T17:15:25.875Z,6.48
2023-05-06T17:17:55.923Z,6.47
2023-05-06T17:20:28.005Z,6.46
2023-05-06T17:22:56.557Z,6.46
2023-05-06T17:25:25.239Z,6.47
2023-05-06T17:27:53.508Z,6.48
2023-05-06T17:30:22.006Z,6.51
2023-05-06T17:32:50.440Z,6.52
2023-05-06T17:35:18.719Z,6.50
2023-05-06T17:37:47.605Z,6.49
2023-05-06T17:40:16.193Z,6.47
2023-05-06T17:42:45.042Z,6.49
2023-05-06T17:45:14.056Z,6.48
2023-05-06T17:47:42.442Z,6.46
2023-05-06T17:50:11.403Z,6.45
2023-05-06T17:52:39.528Z,6.45
2023-05-06T17:55:16.333Z,6.46
2023-05-06T17:57:46.615Z,6.47
2023-05-06T18:00:18.797Z,6.49
2023-05-06T18:02:47.786Z,6.49
2023-05-06T18:05:17.712Z,6.46
2023-05-06T18:07:46.796Z,6.43
2023-05-06T18:10:17.746Z,6.42
2023-05-06T18:12:48.838Z,6.37
2023-05-06T18:15:17.159Z,6.34
2023-05-06T18:17:46.282Z,6.32
2023-05-06T18:20:15.536Z,6.31
2023-05-06T18:22:44.659Z,6.29
2023-05-06T18:25:13.117Z,6.31
2023-05-06T18:27:41.824Z,6.31
2023-05-06T18:30:11.167Z,6.32
2023-05-06T18:32:39.717Z,6.33
2023-05-06T18:35:12.160Z,6.31
2023-05-06T18:37:40.745Z,6.28
2023-05-06T18:40:09.565Z,6.30
2023-05-06T18:42:37.804Z,6.28
2023-05-06T18:45:10.253Z,6.28
2023-05-06T18:47:40.424Z,6.30
2023-05-06T18:50:09.623Z,6.32
2023-05-06T18:52:38.025Z,6.32
2023-05-06T18:55:07.805Z,6.32
2023-05-06T18:57:36.315Z,6.32
2023-05-06T19:00:07.421Z,6.29
2023-05-06T19:02:38.238Z,6.29
2023-05-06T19:05:08.037Z,6.25
2023-05-06T19:07:37.024Z,6.20
2023-05-06T19:10:05.917Z,6.16
2023-05-06T19:12:37.007Z,6.13
2023-05-06T19:15:14.649Z,6.14
2023-05-06T19:17:43.036Z,6.12
2023-05-06T19:20:11.906Z,6.09
2023-05-06T19:22:43.687Z,6.07
2023-05-06T19:25:14.659Z,6.04
2023-05-06T19:27:43.517Z,6.03
2023-05-06T19:30:12.362Z,6.02
2023-05-06T19:32:40.822Z,6.01
2023-05-06T19:35:09.456Z,6.00
2023-05-06T19:37:38.822Z,6.01
2023-05-06T19:40:08.181Z,6.03
2023-05-06T19:42:37.952Z,6.05
2023-05-06T19:45:08.161Z,6.06
2023-05-06T19:47:36.872Z,6.03
2023-05-06T19:50:06.306Z,6.04
2023-05-06T19:52:34.876Z,6.04
2023-05-06T19:55:03.629Z,6.06
2023-05-06T19:57:33.971Z,6.08
2023-05-06T20:00:08.438Z,6.10
2023-05-06T20:02:38.369Z,6.10
2023-05-06T20:05:07.179Z,6.10
2023-05-06T20:07:38.329Z,6.11
2023-05-06T20:10:09.855Z,6.13
2023-05-06T20:12:38.354Z,6.11
2023-05-06T20:15:08.757Z,6.13
2023-05-06T20:17:38.859Z,6.14
2023-05-06T20:20:11.447Z,6.12
2023-05-06T20:22:43.061Z,6.10
2023-05-06T20:25:17.710Z,6.11
2023-05-06T20:27:46.668Z,6.10
2023-05-06T20:30:15.648Z,6.10
2023-05-06T20:32:47.477Z,6.07
2023-05-06T20:35:16.985Z,6.08
2023-05-06T20:37:45.477Z,6.07
2023-05-06T20:40:17.114Z,6.05
2023-05-06T20:42:48.980Z,6.04
2023-05-06T20:45:26.262Z,6.02
2023-05-06T20:47:55.340Z,6.03
2023-05-06T20:50:23.870Z,6.01
2023-05-06T20:52:55.060Z,6.02
2023-05-06T20:55:26.874Z,6.01
2023-05-06T20:57:55.341Z,5.99
2023-05-06T21:00:24.191Z,6.02
2023-05-06T21:02:52.991Z,6.02
2023-05-06T21:05:21.386Z,6.02
2023-05-06T21:07:50.039Z,6.01
2023-05-06T21:10:18.286Z,6.03
2023-05-06T21:12:51.623Z,6.04
2023-05-06T21:15:19.965Z,6.04
2023-05-06T21:17:49.851Z,6.04
2023-05-06T21:20:19.622Z,6.05
2023-05-06T21:22:48.225Z,6.04
2023-05-06T21:25:16.976Z,6.03
2023-05-06T21:27:45.541Z,6.03
2023-05-06T21:30:16.797Z,6.02
2023-05-06T21:32:49.887Z,6.02
2023-05-06T21:35:18.344Z,6.02
2023-05-06T21:37:46.779Z,6.03
2023-05-06T21:40:31.070Z,6.03
2023-05-06T21:43:03.560Z,6.03
2023-05-06T21:45:34.144Z,6.04
2023-05-06T21:48:02.438Z,6.04
2023-05-06T21:50:37.206Z,6.04
2023-05-06T21:53:05.890Z,6.03
2023-05-06T21:55:57.802Z,6.01
2023-05-06T21:58:26.530Z,6.03
2023-05-06T22:00:57.464Z,6.03
2023-05-06T22:04:13.425Z,6.03
2023-05-06T22:06:42.178Z,6.03
2023-05-06T22:09:14.398Z,6.04
2023-05-06T22:11:44.373Z,6.03
2023-05-06T22:14:15.398Z,6.04
2023-05-06T22:16:46.022Z,6.03
2023-05-06T22:19:20.480Z,6.02
2023-05-06T22:21:58.213Z,6.02
2023-05-06T22:24:36.976Z,6.03
2023-05-06T22:27:05.757Z,6.03
2023-05-06T22:29:37.144Z,6.02
2023-05-06T22:32:09.687Z,6.02
2023-05-06T22:34:50.153Z,6.04
2023-05-06T22:37:21.438Z,6.04
2023-05-06T22:39:52.147Z,6.02
2023-05-06T22:42:41.641Z,6.01
2023-05-06T22:45:13.453Z,6.02
2023-05-06T22:47:42.111Z,6.04
2023-05-06T22:50:14.753Z,6.06
2023-05-06T22:52:48.738Z,6.05
2023-05-06T22:55:17.659Z,6.03
2023-05-06T22:57:54.056Z,6.05
2023-05-06T23:00:31.740Z,6.07
2023-05-06T23:03:06.333Z,6.07
2023-05-06T23:05:37.993Z,6.05
2023-05-06T23:08:08.874Z,6.02
2023-05-06T23:10:40.924Z,5.99
2023-05-06T23:13:09.944Z,5.98
2023-05-06T23:15:46.079Z,5.99
2023-05-06T23:18:14.546Z,5.99
2023-05-06T23:20:46.333Z,5.97
2023-05-06T23:23:18.303Z,5.96
2023-05-06T23:26:00.756Z,5.99
2023-05-06T23:28:29.768Z,5.99
2023-05-06T23:30:58.224Z,5.98
2023-05-06T23:33:26.957Z,5.97
2023-05-06T23:35:55.885Z,5.96
2023-05-06T23:38:24.676Z,5.96
2023-05-06T23:40:52.986Z,5.96
2023-05-06T23:43:21.509Z,5.98
2023-05-06T23:46:02.255Z,5.98
2023-05-06T23:48:40.880Z,5.96
2023-05-06T23:51:11.227Z,5.97
2023-05-06T23:53:39.544Z,5.96
2023-05-06T23:56:08.283Z,5.93
2023-05-06T23:58:36.980Z,5.92
